KBNO/BNO METAR and TAF weather

Enter ICAO airport designator
Station Type Date Time Source
KBNO METAR 2018/07/20 13:53 UTC NOAA

KBNO 201353Z AUTO 00000KT 10SM CLR 12/01 A3011 RMK AO2 SLP158 T01220006


Station Type Date Time Source
KBNO Decoded METAR 2018/07/20 13:53 UTC NOAA

BURNS MUNICIPAL AIRPORT, OR, United States (KBNO) 43-36N 118-57W 1264M
Jul 20, 2018 - 09:53 AM EDT / 2018.07.20 1353 UTC
Wind: Calm:0
Visibility: 10 mile(s):0
Sky conditions: clear
Temperature: 54.0 F (12.2 C)
Dew Point: 33.1 F (0.6 C)
Relative Humidity: 44%
Pressure (altimeter): 30.11 in. Hg (1019 hPa)
ob: KBNO 201353Z AUTO 00000KT 10SM CLR 12/01 A3011 RMK AO2 SLP158 T01220006
cycle: 14

Station Type Date Time Source
KBNO TAF 2018/07/20 12:22 UTC NOAA

TAF KBNO 201120Z 2012/2112 27008KT P6SM SKC


Example: see airport list